sensor_id;sensor_type;location;lat;lon;timestamp;P1;durP1;ratioP1;P2;durP2;ratioP2
2848;SDS011;59355;52.416;13.412;2023-01-25T00:01:45;25.43;;;18.97;;
2848;SDS011;59355;52.416;13.412;2023-01-25T00:04:10;24.20;;;19.77;;
2848;SDS011;59355;52.416;13.412;2023-01-25T00:06:36;30.33;;;19.80;;
2848;SDS011;59355;52.416;13.412;2023-01-25T00:09:01;24.70;;;18.73;;
2848;SDS011;59355;52.416;13.412;2023-01-25T00:11:27;25.97;;;19.53;;
2848;SDS011;59355;52.416;13.412;2023-01-25T00:13:52;25.23;;;19.17;;
2848;SDS011;59355;52.416;13.412;2023-01-25T00:16:18;24.87;;;18.57;;
2848;SDS011;59355;52.416;13.412;2023-01-25T00:18:43;29.10;;;19.37;;
2848;SDS011;59355;52.416;13.412;2023-01-25T00:21:16;24.90;;;17.33;;
2848;SDS011;59355;52.416;13.412;2023-01-25T00:23:43;27.30;;;19.77;;
2848;SDS011;59355;52.416;13.412;2023-01-25T00:26:08;27.27;;;20.13;;
2848;SDS011;59355;52.416;13.412;2023-01-25T00:28:34;76.90;;;54.87;;
2848;SDS011;59355;52.416;13.412;2023-01-25T00:31:00;39.07;;;29.97;;
2848;SDS011;59355;52.416;13.412;2023-01-25T00:33:31;26.07;;;17.47;;
2848;SDS011;59355;52.416;13.412;2023-01-25T00:35:59;23.07;;;18.93;;
2848;SDS011;59355;52.416;13.412;2023-01-25T00:38:29;23.10;;;17.17;;
2848;SDS011;59355;52.416;13.412;2023-01-25T00:40:56;23.87;;;18.93;;
2848;SDS011;59355;52.416;13.412;2023-01-25T00:43:21;27.60;;;19.73;;
2848;SDS011;59355;52.416;13.412;2023-01-25T00:45:46;28.50;;;18.33;;
2848;SDS011;59355;52.416;13.412;2023-01-25T00:48:12;25.27;;;18.47;;
2848;SDS011;59355;52.416;13.412;2023-01-25T00:50:37;20.93;;;15.87;;
2848;SDS011;59355;52.416;13.412;2023-01-25T00:53:02;23.20;;;18.20;;
2848;SDS011;59355;52.416;13.412;2023-01-25T00:55:28;25.63;;;18.57;;
2848;SDS011;59355;52.416;13.412;2023-01-25T00:57:53;26.03;;;18.17;;
2848;SDS011;59355;52.416;13.412;2023-01-25T01:00:18;21.73;;;19.33;;
2848;SDS011;59355;52.416;13.412;2023-01-25T01:02:44;26.57;;;18.93;;
2848;SDS011;59355;52.416;13.412;2023-01-25T01:05:09;21.37;;;17.10;;
2848;SDS011;59355;52.416;13.412;2023-01-25T01:07:34;28.57;;;20.27;;
2848;SDS011;59355;52.416;13.412;2023-01-25T01:10:00;24.60;;;18.60;;
2848;SDS011;59355;52.416;13.412;2023-01-25T01:12:25;24.60;;;18.90;;
2848;SDS011;59355;52.416;13.412;2023-01-25T01:14:50;24.60;;;19.07;;
2848;SDS011;59355;52.416;13.412;2023-01-25T01:17:15;24.13;;;20.57;;
2848;SDS011;59355;52.416;13.412;2023-01-25T01:19:41;27.13;;;20.87;;
2848;SDS011;59355;52.416;13.412;2023-01-25T01:22:06;22.77;;;18.27;;
2848;SDS011;59355;52.416;13.412;2023-01-25T01:24:31;28.50;;;20.23;;
2848;SDS011;59355;52.416;13.412;2023-01-25T01:26:57;30.27;;;20.63;;
2848;SDS011;59355;52.416;13.412;2023-01-25T01:29:22;30.80;;;20.53;;
2848;SDS011;59355;52.416;13.412;2023-01-25T01:31:50;28.97;;;20.30;;
2848;SDS011;59355;52.416;13.412;2023-01-25T01:34:16;23.70;;;19.30;;
2848;SDS011;59355;52.416;13.412;2023-01-25T01:36:42;28.60;;;20.40;;
2848;SDS011;59355;52.416;13.412;2023-01-25T01:39:07;23.87;;;18.17;;
2848;SDS011;59355;52.416;13.412;2023-01-25T01:41:32;29.00;;;21.97;;
2848;SDS011;59355;52.416;13.412;2023-01-25T01:43:58;31.40;;;20.90;;
2848;SDS011;59355;52.416;13.412;2023-01-25T01:46:24;30.83;;;20.20;;
2848;SDS011;59355;52.416;13.412;2023-01-25T01:48:53;31.03;;;20.77;;
2848;SDS011;59355;52.416;13.412;2023-01-25T01:51:26;28.83;;;20.33;;
2848;SDS011;59355;52.416;13.412;2023-01-25T01:53:57;25.00;;;19.47;;
2848;SDS011;59355;52.416;13.412;2023-01-25T01:56:39;27.67;;;20.20;;
2848;SDS011;59355;52.416;13.412;2023-01-25T01:59:26;30.03;;;19.00;;
2848;SDS011;59355;52.416;13.412;2023-01-25T02:01:53;25.87;;;19.10;;
2848;SDS011;59355;52.416;13.412;2023-01-25T02:04:18;29.20;;;20.20;;
2848;SDS011;59355;52.416;13.412;2023-01-25T02:09:43;27.17;;;18.87;;
2848;SDS011;59355;52.416;13.412;2023-01-25T02:12:09;31.07;;;19.77;;
2848;SDS011;59355;52.416;13.412;2023-01-25T02:14:37;26.57;;;18.93;;
2848;SDS011;59355;52.416;13.412;2023-01-25T02:17:05;26.70;;;21.80;;
2848;SDS011;59355;52.416;13.412;2023-01-25T02:19:37;31.40;;;20.20;;
2848;SDS011;59355;52.416;13.412;2023-01-25T02:22:10;30.53;;;20.53;;
2848;SDS011;59355;52.416;13.412;2023-01-25T02:24:40;26.10;;;19.10;;
2848;SDS011;59355;52.416;13.412;2023-01-25T02:27:10;25.80;;;19.23;;
2848;SDS011;59355;52.416;13.412;2023-01-25T02:29:36;24.60;;;18.70;;
2848;SDS011;59355;52.416;13.412;2023-01-25T02:32:02;23.87;;;17.43;;
2848;SDS011;59355;52.416;13.412;2023-01-25T02:34:28;24.90;;;18.97;;
2848;SDS011;59355;52.416;13.412;2023-01-25T02:36:53;27.17;;;20.87;;
2848;SDS011;59355;52.416;13.412;2023-01-25T02:39:18;25.97;;;20.07;;
2848;SDS011;59355;52.416;13.412;2023-01-25T02:41:45;26.80;;;20.50;;
2848;SDS011;59355;52.416;13.412;2023-01-25T02:44:13;27.23;;;20.60;;
2848;SDS011;59355;52.416;13.412;2023-01-25T02:46:40;24.53;;;19.20;;
2848;SDS011;59355;52.416;13.412;2023-01-25T02:49:07;25.90;;;19.97;;
2848;SDS011;59355;52.416;13.412;2023-01-25T02:51:34;26.03;;;19.80;;
2848;SDS011;59355;52.416;13.412;2023-01-25T02:54:01;29.27;;;21.30;;
2848;SDS011;59355;52.416;13.412;2023-01-25T02:56:28;24.20;;;19.80;;
2848;SDS011;59355;52.416;13.412;2023-01-25T02:58:53;27.30;;;20.47;;
2848;SDS011;59355;52.416;13.412;2023-01-25T03:01:19;27.50;;;18.90;;
2848;SDS011;59355;52.416;13.412;2023-01-25T03:03:44;22.40;;;18.60;;
2848;SDS011;59355;52.416;13.412;2023-01-25T03:06:10;22.80;;;18.60;;
2848;SDS011;59355;52.416;13.412;2023-01-25T03:08:36;25.50;;;20.80;;
2848;SDS011;59355;52.416;13.412;2023-01-25T03:11:02;29.77;;;22.43;;
2848;SDS011;59355;52.416;13.412;2023-01-25T03:13:30;26.70;;;20.37;;
2848;SDS011;59355;52.416;13.412;2023-01-25T03:16:00;27.87;;;20.97;;
2848;SDS011;59355;52.416;13.412;2023-01-25T03:18:26;28.70;;;22.80;;
2848;SDS011;59355;52.416;13.412;2023-01-25T03:20:52;26.77;;;20.60;;
2848;SDS011;59355;52.416;13.412;2023-01-25T03:23:17;27.07;;;20.43;;
2848;SDS011;59355;52.416;13.412;2023-01-25T03:25:42;28.27;;;20.83;;
2848;SDS011;59355;52.416;13.412;2023-01-25T03:28:08;26.47;;;19.37;;
2848;SDS011;59355;52.416;13.412;2023-01-25T03:30:33;26.93;;;21.40;;
2848;SDS011;59355;52.416;13.412;2023-01-25T03:32:58;32.50;;;21.70;;
2848;SDS011;59355;52.416;13.412;2023-01-25T03:35:24;27.40;;;21.60;;
2848;SDS011;59355;52.416;13.412;2023-01-25T03:37:49;29.33;;;20.93;;
2848;SDS011;59355;52.416;13.412;2023-01-25T03:40:14;27.20;;;20.93;;
2848;SDS011;59355;52.416;13.412;2023-01-25T03:42:40;30.23;;;20.67;;
2848;SDS011;59355;52.416;13.412;2023-01-25T03:45:05;30.03;;;19.87;;
2848;SDS011;59355;52.416;13.412;2023-01-25T03:47:31;31.60;;;19.50;;
2848;SDS011;59355;52.416;13.412;2023-01-25T03:49:56;25.53;;;19.03;;
2848;SDS011;59355;52.416;13.412;2023-01-25T03:52:21;26.70;;;19.67;;
2848;SDS011;59355;52.416;13.412;2023-01-25T03:54:48;24.30;;;18.70;;
2848;SDS011;59355;52.416;13.412;2023-01-25T03:57:13;29.23;;;20.80;;
2848;SDS011;59355;52.416;13.412;2023-01-25T03:59:39;25.70;;;21.00;;
2848;SDS011;59355;52.416;13.412;2023-01-25T04:02:04;28.00;;;20.97;;
2848;SDS011;59355;52.416;13.412;2023-01-25T04:04:29;25.63;;;20.53;;
2848;SDS011;59355;52.416;13.412;2023-01-25T04:06:55;31.00;;;20.50;;
2848;SDS011;59355;52.416;13.412;2023-01-25T04:09:20;26.03;;;20.73;;
2848;SDS011;59355;52.416;13.412;2023-01-25T04:11:47;29.50;;;19.97;;
2848;SDS011;59355;52.416;13.412;2023-01-25T04:14:13;29.87;;;20.53;;
2848;SDS011;59355;52.416;13.412;2023-01-25T04:16:39;24.50;;;19.43;;
2848;SDS011;59355;52.416;13.412;2023-01-25T04:19:04;28.07;;;21.73;;
2848;SDS011;59355;52.416;13.412;2023-01-25T04:21:29;31.83;;;21.07;;
2848;SDS011;59355;52.416;13.412;2023-01-25T04:23:55;28.00;;;20.10;;
2848;SDS011;59355;52.416;13.412;2023-01-25T04:26:20;33.63;;;20.87;;
2848;SDS011;59355;52.416;13.412;2023-01-25T04:28:45;29.47;;;23.00;;
2848;SDS011;59355;52.416;13.412;2023-01-25T04:31:11;33.90;;;22.50;;
2848;SDS011;59355;52.416;13.412;2023-01-25T04:33:36;26.73;;;20.57;;
2848;SDS011;59355;52.416;13.412;2023-01-25T04:36:01;27.10;;;20.53;;
2848;SDS011;59355;52.416;13.412;2023-01-25T04:38:27;29.33;;;20.53;;
2848;SDS011;59355;52.416;13.412;2023-01-25T04:40:52;27.37;;;19.77;;
2848;SDS011;59355;52.416;13.412;2023-01-25T04:43:18;20.30;;;17.90;;
2848;SDS011;59355;52.416;13.412;2023-01-25T04:45:44;25.70;;;17.03;;
2848;SDS011;59355;52.416;13.412;2023-01-25T04:48:10;22.63;;;14.60;;
2848;SDS011;59355;52.416;13.412;2023-01-25T04:50:36;18.57;;;14.13;;
2848;SDS011;59355;52.416;13.412;2023-01-25T04:53:02;24.20;;;16.20;;
2848;SDS011;59355;52.416;13.412;2023-01-25T04:55:29;19.23;;;15.67;;
2848;SDS011;59355;52.416;13.412;2023-01-25T04:57:54;20.37;;;15.27;;
2848;SDS011;59355;52.416;13.412;2023-01-25T05:00:20;22.80;;;16.03;;
2848;SDS011;59355;52.416;13.412;2023-01-25T05:02:45;24.97;;;18.17;;
2848;SDS011;59355;52.416;13.412;2023-01-25T05:05:11;25.53;;;18.53;;
2848;SDS011;59355;52.416;13.412;2023-01-25T05:07:36;22.93;;;17.20;;
2848;SDS011;59355;52.416;13.412;2023-01-25T05:10:02;26.80;;;21.30;;
2848;SDS011;59355;52.416;13.412;2023-01-25T05:12:28;23.70;;;19.23;;
2848;SDS011;59355;52.416;13.412;2023-01-25T05:14:53;24.67;;;18.90;;
2848;SDS011;59355;52.416;13.412;2023-01-25T05:17:19;27.10;;;19.10;;
2848;SDS011;59355;52.416;13.412;2023-01-25T05:19:44;28.33;;;20.63;;
2848;SDS011;59355;52.416;13.412;2023-01-25T05:22:11;33.00;;;21.60;;
2848;SDS011;59355;52.416;13.412;2023-01-25T05:24:38;18.33;;;14.63;;
2848;SDS011;59355;52.416;13.412;2023-01-25T05:27:05;20.53;;;16.80;;
2848;SDS011;59355;52.416;13.412;2023-01-25T05:29:36;22.70;;;16.30;;
2848;SDS011;59355;52.416;13.412;2023-01-25T05:32:06;26.50;;;18.90;;
2848;SDS011;59355;52.416;13.412;2023-01-25T05:34:32;25.80;;;18.00;;
2848;SDS011;59355;52.416;13.412;2023-01-25T05:36:57;27.53;;;16.90;;
2848;SDS011;59355;52.416;13.412;2023-01-25T05:39:23;23.90;;;17.50;;
2848;SDS011;59355;52.416;13.412;2023-01-25T05:41:49;27.77;;;18.87;;
2848;SDS011;59355;52.416;13.412;2023-01-25T05:44:14;26.47;;;18.30;;
2848;SDS011;59355;52.416;13.412;2023-01-25T05:46:40;31.00;;;16.57;;
2848;SDS011;59355;52.416;13.412;2023-01-25T05:49:05;25.47;;;17.57;;
2848;SDS011;59355;52.416;13.412;2023-01-25T05:51:31;24.50;;;18.03;;
2848;SDS011;59355;52.416;13.412;2023-01-25T05:53:56;19.93;;;15.23;;
2848;SDS011;59355;52.416;13.412;2023-01-25T05:56:22;17.77;;;15.13;;
2848;SDS011;59355;52.416;13.412;2023-01-25T05:58:51;22.93;;;16.23;;
2848;SDS011;59355;52.416;13.412;2023-01-25T06:01:20;24.73;;;18.20;;
2848;SDS011;59355;52.416;13.412;2023-01-25T06:03:45;22.73;;;16.67;;
2848;SDS011;59355;52.416;13.412;2023-01-25T06:06:11;22.60;;;18.13;;
2848;SDS011;59355;52.416;13.412;2023-01-25T06:08:36;24.73;;;17.27;;
2848;SDS011;59355;52.416;13.412;2023-01-25T06:11:08;20.80;;;14.87;;
2848;SDS011;59355;52.416;13.412;2023-01-25T06:13:37;18.33;;;14.77;;
2848;SDS011;59355;52.416;13.412;2023-01-25T06:16:02;19.30;;;15.10;;
2848;SDS011;59355;52.416;13.412;2023-01-25T06:18:28;21.70;;;14.93;;
2848;SDS011;59355;52.416;13.412;2023-01-25T06:20:55;19.17;;;14.33;;
2848;SDS011;59355;52.416;13.412;2023-01-25T06:23:20;19.00;;;14.73;;
2848;SDS011;59355;52.416;13.412;2023-01-25T06:25:46;20.23;;;15.30;;
2848;SDS011;59355;52.416;13.412;2023-01-25T06:28:11;21.17;;;15.90;;
2848;SDS011;59355;52.416;13.412;2023-01-25T06:30:36;22.33;;;15.57;;
2848;SDS011;59355;52.416;13.412;2023-01-25T06:33:02;21.13;;;15.30;;
2848;SDS011;59355;52.416;13.412;2023-01-25T06:35:27;19.73;;;14.93;;
2848;SDS011;59355;52.416;13.412;2023-01-25T06:38:11;21.77;;;15.50;;
2848;SDS011;59355;52.416;13.412;2023-01-25T06:40:36;19.00;;;14.37;;
2848;SDS011;59355;52.416;13.412;2023-01-25T06:43:08;18.17;;;14.23;;
2848;SDS011;59355;52.416;13.412;2023-01-25T06:45:34;19.90;;;13.37;;
2848;SDS011;59355;52.416;13.412;2023-01-25T06:48:00;18.20;;;14.20;;
2848;SDS011;59355;52.416;13.412;2023-01-25T06:50:25;23.30;;;15.77;;
2848;SDS011;59355;52.416;13.412;2023-01-25T06:52:51;22.23;;;16.23;;
2848;SDS011;59355;52.416;13.412;2023-01-25T06:55:17;25.77;;;17.13;;
2848;SDS011;59355;52.416;13.412;2023-01-25T06:57:42;22.03;;;16.60;;
2848;SDS011;59355;52.416;13.412;2023-01-25T07:00:08;21.90;;;16.80;;
2848;SDS011;59355;52.416;13.412;2023-01-25T07:02:34;19.40;;;15.77;;
2848;SDS011;59355;52.416;13.412;2023-01-25T07:05:00;24.87;;;15.83;;
2848;SDS011;59355;52.416;13.412;2023-01-25T07:07:25;22.03;;;15.83;;
2848;SDS011;59355;52.416;13.412;2023-01-25T07:09:50;26.30;;;16.90;;
2848;SDS011;59355;52.416;13.412;2023-01-25T07:12:16;26.23;;;16.83;;
2848;SDS011;59355;52.416;13.412;2023-01-25T07:14:43;27.40;;;16.63;;
2848;SDS011;59355;52.416;13.412;2023-01-25T07:17:08;25.40;;;17.03;;
2848;SDS011;59355;52.416;13.412;2023-01-25T07:19:34;30.70;;;18.47;;
2848;SDS011;59355;52.416;13.412;2023-01-25T07:21:59;25.97;;;18.63;;
2848;SDS011;59355;52.416;13.412;2023-01-25T07:24:24;27.67;;;18.37;;
2848;SDS011;59355;52.416;13.412;2023-01-25T07:26:51;33.27;;;21.13;;
2848;SDS011;59355;52.416;13.412;2023-01-25T07:29:16;27.80;;;19.10;;
2848;SDS011;59355;52.416;13.412;2023-01-25T07:31:41;28.20;;;18.80;;
2848;SDS011;59355;52.416;13.412;2023-01-25T07:34:08;34.50;;;21.07;;
2848;SDS011;59355;52.416;13.412;2023-01-25T07:36:34;30.20;;;20.97;;
2848;SDS011;59355;52.416;13.412;2023-01-25T07:39:00;29.90;;;20.63;;
2848;SDS011;59355;52.416;13.412;2023-01-25T07:41:25;33.70;;;21.70;;
2848;SDS011;59355;52.416;13.412;2023-01-25T07:43:51;30.27;;;21.17;;
2848;SDS011;59355;52.416;13.412;2023-01-25T07:46:17;30.20;;;22.03;;
2848;SDS011;59355;52.416;13.412;2023-01-25T07:48:46;35.50;;;22.97;;
2848;SDS011;59355;52.416;13.412;2023-01-25T07:51:12;34.40;;;21.80;;
2848;SDS011;59355;52.416;13.412;2023-01-25T07:53:46;34.20;;;24.50;;
2848;SDS011;59355;52.416;13.412;2023-01-25T07:56:16;34.13;;;21.80;;
2848;SDS011;59355;52.416;13.412;2023-01-25T07:58:42;39.00;;;21.53;;
2848;SDS011;59355;52.416;13.412;2023-01-25T08:01:08;37.97;;;23.40;;
2848;SDS011;59355;52.416;13.412;2023-01-25T08:03:34;38.80;;;24.27;;
2848;SDS011;59355;52.416;13.412;2023-01-25T08:05:59;36.57;;;24.63;;
2848;SDS011;59355;52.416;13.412;2023-01-25T08:08:25;36.63;;;24.87;;
2848;SDS011;59355;52.416;13.412;2023-01-25T08:10:50;33.37;;;23.60;;
2848;SDS011;59355;52.416;13.412;2023-01-25T08:13:15;31.23;;;21.30;;
2848;SDS011;59355;52.416;13.412;2023-01-25T08:15:41;29.80;;;21.50;;
2848;SDS011;59355;52.416;13.412;2023-01-25T08:18:06;28.90;;;19.33;;
2848;SDS011;59355;52.416;13.412;2023-01-25T08:20:31;32.10;;;20.43;;
2848;SDS011;59355;52.416;13.412;2023-01-25T08:22:57;32.30;;;20.17;;
2848;SDS011;59355;52.416;13.412;2023-01-25T08:25:22;32.27;;;23.03;;
2848;SDS011;59355;52.416;13.412;2023-01-25T08:27:47;29.70;;;20.50;;
2848;SDS011;59355;52.416;13.412;2023-01-25T08:30:13;33.40;;;21.57;;
2848;SDS011;59355;52.416;13.412;2023-01-25T08:32:38;26.50;;;18.50;;
2848;SDS011;59355;52.416;13.412;2023-01-25T08:35:03;33.83;;;21.40;;
2848;SDS011;59355;52.416;13.412;2023-01-25T08:37:29;32.90;;;19.83;;
2848;SDS011;59355;52.416;13.412;2023-01-25T08:39:55;30.60;;;20.57;;
2848;SDS011;59355;52.416;13.412;2023-01-25T08:42:23;29.53;;;20.90;;
2848;SDS011;59355;52.416;13.412;2023-01-25T08:44:49;32.43;;;20.93;;
2848;SDS011;59355;52.416;13.412;2023-01-25T08:47:14;27.60;;;20.10;;
2848;SDS011;59355;52.416;13.412;2023-01-25T08:49:40;31.70;;;20.17;;
2848;SDS011;59355;52.416;13.412;2023-01-25T08:52:05;31.77;;;20.03;;
2848;SDS011;59355;52.416;13.412;2023-01-25T08:54:30;27.13;;;19.40;;
2848;SDS011;59355;52.416;13.412;2023-01-25T08:56:55;28.03;;;20.03;;
2848;SDS011;59355;52.416;13.412;2023-01-25T08:59:21;35.47;;;22.77;;
2848;SDS011;59355;52.416;13.412;2023-01-25T09:01:46;32.00;;;20.60;;
2848;SDS011;59355;52.416;13.412;2023-01-25T09:04:11;30.43;;;21.00;;
2848;SDS011;59355;52.416;13.412;2023-01-25T09:06:37;30.97;;;20.40;;
2848;SDS011;59355;52.416;13.412;2023-01-25T09:09:02;26.20;;;16.50;;
2848;SDS011;59355;52.416;13.412;2023-01-25T09:11:28;26.60;;;19.10;;
2848;SDS011;59355;52.416;13.412;2023-01-25T09:13:53;32.03;;;19.60;;
2848;SDS011;59355;52.416;13.412;2023-01-25T09:16:20;28.07;;;20.00;;
2848;SDS011;59355;52.416;13.412;2023-01-25T09:18:52;27.27;;;20.43;;
2848;SDS011;59355;52.416;13.412;2023-01-25T09:21:18;32.47;;;20.00;;
2848;SDS011;59355;52.416;13.412;2023-01-25T09:23:46;25.00;;;18.43;;
2848;SDS011;59355;52.416;13.412;2023-01-25T09:26:12;30.40;;;19.30;;
2848;SDS011;59355;52.416;13.412;2023-01-25T09:28:39;30.33;;;19.10;;
2848;SDS011;59355;52.416;13.412;2023-01-25T09:31:04;27.70;;;20.20;;
2848;SDS011;59355;52.416;13.412;2023-01-25T09:33:32;25.80;;;17.90;;
2848;SDS011;59355;52.416;13.412;2023-01-25T09:35:59;29.50;;;17.67;;
2848;SDS011;59355;52.416;13.412;2023-01-25T09:38:25;26.60;;;17.77;;
2848;SDS011;59355;52.416;13.412;2023-01-25T09:41:11;30.20;;;18.70;;
2848;SDS011;59355;52.416;13.412;2023-01-25T09:43:58;29.83;;;19.53;;
2848;SDS011;59355;52.416;13.412;2023-01-25T09:46:33;33.27;;;20.30;;
2848;SDS011;59355;52.416;13.412;2023-01-25T09:52:06;27.83;;;19.30;;
2848;SDS011;59355;52.416;13.412;2023-01-25T09:54:39;33.90;;;19.57;;
2848;SDS011;59355;52.416;13.412;2023-01-25T09:57:09;29.20;;;18.63;;
2848;SDS011;59355;52.416;13.412;2023-01-25T09:59:40;32.10;;;20.37;;
2848;SDS011;59355;52.416;13.412;2023-01-25T10:02:12;29.80;;;18.50;;
2848;SDS011;59355;52.416;13.412;2023-01-25T10:04:56;32.00;;;18.87;;
2848;SDS011;59355;52.416;13.412;2023-01-25T10:07:27;25.33;;;17.00;;
2848;SDS011;59355;52.416;13.412;2023-01-25T10:12:23;26.17;;;18.70;;
2848;SDS011;59355;52.416;13.412;2023-01-25T10:14:49;28.70;;;19.03;;
2848;SDS011;59355;52.416;13.412;2023-01-25T10:17:25;29.90;;;19.93;;
2848;SDS011;59355;52.416;13.412;2023-01-25T10:20:09;28.67;;;18.57;;
2848;SDS011;59355;52.416;13.412;2023-01-25T10:22:49;25.40;;;18.40;;
2848;SDS011;59355;52.416;13.412;2023-01-25T10:25:18;29.43;;;19.13;;
2848;SDS011;59355;52.416;13.412;2023-01-25T10:27:57;27.20;;;18.27;;
2848;SDS011;59355;52.416;13.412;2023-01-25T10:30:35;29.30;;;20.60;;
2848;SDS011;59355;52.416;13.412;2023-01-25T10:33:11;32.83;;;19.50;;
2848;SDS011;59355;52.416;13.412;2023-01-25T10:35:41;35.53;;;20.10;;
2848;SDS011;59355;52.416;13.412;2023-01-25T10:38:25;34.90;;;19.50;;
2848;SDS011;59355;52.416;13.412;2023-01-25T10:40:55;31.67;;;23.00;;
2848;SDS011;59355;52.416;13.412;2023-01-25T10:43:28;30.10;;;20.93;;
2848;SDS011;59355;52.416;13.412;2023-01-25T10:45:53;33.23;;;21.13;;
2848;SDS011;59355;52.416;13.412;2023-01-25T10:48:20;28.63;;;17.63;;
2848;SDS011;59355;52.416;13.412;2023-01-25T10:50:54;31.60;;;21.07;;
2848;SDS011;59355;52.416;13.412;2023-01-25T10:53:28;33.07;;;21.77;;
2848;SDS011;59355;52.416;13.412;2023-01-25T10:58:38;43.03;;;22.33;;
2848;SDS011;59355;52.416;13.412;2023-01-25T11:01:07;28.73;;;20.53;;
2848;SDS011;59355;52.416;13.412;2023-01-25T11:03:38;38.97;;;26.57;;
2848;SDS011;59355;52.416;13.412;2023-01-25T11:06:05;32.27;;;23.27;;
2848;SDS011;59355;52.416;13.412;2023-01-25T11:08:33;37.47;;;23.37;;
2848;SDS011;59355;52.416;13.412;2023-01-25T11:11:05;33.90;;;22.03;;
2848;SDS011;59355;52.416;13.412;2023-01-25T11:13:39;43.63;;;25.50;;
2848;SDS011;59355;52.416;13.412;2023-01-25T11:16:14;37.90;;;24.70;;
2848;SDS011;59355;52.416;13.412;2023-01-25T11:18:48;33.17;;;22.67;;
2848;SDS011;59355;52.416;13.412;2023-01-25T11:21:16;35.77;;;24.23;;
2848;SDS011;59355;52.416;13.412;2023-01-25T11:23:45;35.60;;;23.37;;
2848;SDS011;59355;52.416;13.412;2023-01-25T11:26:34;39.83;;;24.13;;
2848;SDS011;59355;52.416;13.412;2023-01-25T11:29:12;34.83;;;22.67;;
2848;SDS011;59355;52.416;13.412;2023-01-25T11:31:42;36.90;;;23.13;;
2848;SDS011;59355;52.416;13.412;2023-01-25T11:34:13;38.27;;;25.53;;
2848;SDS011;59355;52.416;13.412;2023-01-25T11:47:58;39.10;;;26.27;;
2848;SDS011;59355;52.416;13.412;2023-01-25T11:56:11;38.63;;;24.50;;
2848;SDS011;59355;52.416;13.412;2023-01-25T12:01:26;43.27;;;26.20;;
2848;SDS011;59355;52.416;13.412;2023-01-25T12:07:09;38.87;;;26.63;;
2848;SDS011;59355;52.416;13.412;2023-01-25T12:13:10;41.50;;;25.70;;
2848;SDS011;59355;52.416;13.412;2023-01-25T12:15:49;38.17;;;25.00;;
2848;SDS011;59355;52.416;13.412;2023-01-25T12:18:21;37.33;;;23.70;;
2848;SDS011;59355;52.416;13.412;2023-01-25T12:21:01;35.20;;;22.13;;
2848;SDS011;59355;52.416;13.412;2023-01-25T12:23:31;37.17;;;24.57;;
2848;SDS011;59355;52.416;13.412;2023-01-25T12:29:23;32.83;;;22.03;;
2848;SDS011;59355;52.416;13.412;2023-01-25T12:32:01;34.43;;;21.07;;
2848;SDS011;59355;52.416;13.412;2023-01-25T12:34:34;35.23;;;21.30;;
2848;SDS011;59355;52.416;13.412;2023-01-25T12:39:46;35.40;;;22.83;;
2848;SDS011;59355;52.416;13.412;2023-01-25T12:42:19;33.03;;;23.30;;
2848;SDS011;59355;52.416;13.412;2023-01-25T12:44:48;39.43;;;26.13;;
2848;SDS011;59355;52.416;13.412;2023-01-25T12:49:55;39.30;;;22.60;;
2848;SDS011;59355;52.416;13.412;2023-01-25T12:53:00;34.43;;;22.87;;
2848;SDS011;59355;52.416;13.412;2023-01-25T12:55:26;35.07;;;22.13;;
2848;SDS011;59355;52.416;13.412;2023-01-25T13:00:35;36.23;;;24.40;;
2848;SDS011;59355;52.416;13.412;2023-01-25T13:08:55;29.90;;;20.30;;
2848;SDS011;59355;52.416;13.412;2023-01-25T13:11:28;30.83;;;20.53;;
2848;SDS011;59355;52.416;13.412;2023-01-25T13:16:40;28.50;;;20.83;;
2848;SDS011;59355;52.416;13.412;2023-01-25T13:19:37;28.13;;;19.70;;
2848;SDS011;59355;52.416;13.412;2023-01-25T13:22:07;31.37;;;20.07;;
2848;SDS011;59355;52.416;13.412;2023-01-25T13:24:34;29.00;;;20.13;;
2848;SDS011;59355;52.416;13.412;2023-01-25T13:27:28;31.83;;;20.70;;
2848;SDS011;59355;52.416;13.412;2023-01-25T13:29:55;30.93;;;20.87;;
2848;SDS011;59355;52.416;13.412;2023-01-25T13:37:59;31.23;;;20.47;;
2848;SDS011;59355;52.416;13.412;2023-01-25T13:43:15;34.70;;;23.70;;
2848;SDS011;59355;52.416;13.412;2023-01-25T13:45:45;35.70;;;20.77;;
2848;SDS011;59355;52.416;13.412;2023-01-25T13:48:13;34.40;;;21.77;;
2848;SDS011;59355;52.416;13.412;2023-01-25T13:50:44;34.37;;;19.87;;
2848;SDS011;59355;52.416;13.412;2023-01-25T13:55:40;34.20;;;19.57;;
2848;SDS011;59355;52.416;13.412;2023-01-25T14:00:56;36.50;;;22.20;;
2848;SDS011;59355;52.416;13.412;2023-01-25T14:03:27;26.83;;;19.90;;
2848;SDS011;59355;52.416;13.412;2023-01-25T14:05:54;30.70;;;20.17;;
2848;SDS011;59355;52.416;13.412;2023-01-25T14:08:21;34.63;;;21.13;;
2848;SDS011;59355;52.416;13.412;2023-01-25T14:10:47;30.57;;;21.13;;
2848;SDS011;59355;52.416;13.412;2023-01-25T14:13:13;35.07;;;24.10;;
2848;SDS011;59355;52.416;13.412;2023-01-25T14:15:39;34.70;;;21.70;;
2848;SDS011;59355;52.416;13.412;2023-01-25T14:18:14;30.47;;;20.50;;
2848;SDS011;59355;52.416;13.412;2023-01-25T14:20:43;34.87;;;20.83;;
2848;SDS011;59355;52.416;13.412;2023-01-25T14:23:20;32.30;;;19.03;;
2848;SDS011;59355;52.416;13.412;2023-01-25T14:25:46;31.20;;;21.20;;
2848;SDS011;59355;52.416;13.412;2023-01-25T14:28:11;33.13;;;20.67;;
2848;SDS011;59355;52.416;13.412;2023-01-25T14:30:38;26.20;;;19.70;;
2848;SDS011;59355;52.416;13.412;2023-01-25T14:33:17;33.20;;;20.23;;
2848;SDS011;59355;52.416;13.412;2023-01-25T14:35:46;31.13;;;20.00;;
2848;SDS011;59355;52.416;13.412;2023-01-25T14:41:15;34.20;;;20.10;;
2848;SDS011;59355;52.416;13.412;2023-01-25T14:43:49;37.50;;;22.07;;
2848;SDS011;59355;52.416;13.412;2023-01-25T14:46:17;27.90;;;19.47;;
2848;SDS011;59355;52.416;13.412;2023-01-25T14:49:05;35.90;;;19.20;;
2848;SDS011;59355;52.416;13.412;2023-01-25T14:51:30;36.27;;;18.63;;
2848;SDS011;59355;52.416;13.412;2023-01-25T14:53:57;32.20;;;20.17;;
2848;SDS011;59355;52.416;13.412;2023-01-25T14:56:27;30.70;;;21.20;;
2848;SDS011;59355;52.416;13.412;2023-01-25T14:58:54;33.77;;;21.47;;
2848;SDS011;59355;52.416;13.412;2023-01-25T15:01:31;32.97;;;22.20;;
2848;SDS011;59355;52.416;13.412;2023-01-25T15:04:00;35.70;;;22.10;;
2848;SDS011;59355;52.416;13.412;2023-01-25T15:06:26;38.57;;;22.30;;
2848;SDS011;59355;52.416;13.412;2023-01-25T15:08:51;33.33;;;20.97;;
2848;SDS011;59355;52.416;13.412;2023-01-25T15:14:13;37.93;;;21.97;;
2848;SDS011;59355;52.416;13.412;2023-01-25T15:16:40;35.03;;;20.00;;
2848;SDS011;59355;52.416;13.412;2023-01-25T15:19:19;37.40;;;20.63;;
2848;SDS011;59355;52.416;13.412;2023-01-25T15:21:45;35.43;;;23.37;;
2848;SDS011;59355;52.416;13.412;2023-01-25T15:24:12;31.37;;;17.93;;
2848;SDS011;59355;52.416;13.412;2023-01-25T15:26:37;42.77;;;19.33;;
2848;SDS011;59355;52.416;13.412;2023-01-25T15:29:13;35.37;;;21.60;;
2848;SDS011;59355;52.416;13.412;2023-01-25T15:31:39;31.43;;;19.57;;
2848;SDS011;59355;52.416;13.412;2023-01-25T15:34:08;32.53;;;21.00;;
2848;SDS011;59355;52.416;13.412;2023-01-25T15:36:38;27.80;;;19.37;;
2848;SDS011;59355;52.416;13.412;2023-01-25T15:39:03;31.00;;;20.43;;
2848;SDS011;59355;52.416;13.412;2023-01-25T15:41:28;32.97;;;20.37;;
2848;SDS011;59355;52.416;13.412;2023-01-25T15:43:53;34.30;;;19.70;;